Time;durP1;ratioP1;P1;durP2;ratioP2;P2;SDS_P1;SDS_P2;PMS_P1;PMS_P2;Temp;Humidity;BMP_temperature;BMP_pressure;BME280_temperature;BME280_humidity;BME280_pressure;Samples;Min_cycle;Max_cycle;Signal;HPM_P1;HPM_P2
2023/07/10 00:01:12;;;;;;;9.50;5.53;;;19.70;66.50;;;;;;5037737;28;20437;-61
2023/07/10 00:03:38;;;;;;;9.43;5.73;;;19.70;66.80;;;;;;5038341;28;20187;-60
2023/07/10 00:06:08;;;;;;;9.30;5.50;;;19.60;66.70;;;;;;5038484;28;20429;-60
2023/07/10 00:08:33;;;;;;;10.63;5.90;;;19.60;66.50;;;;;;5040235;28;20252;-61
2023/07/10 00:10:59;;;;;;;8.87;6.17;;;19.60;66.70;;;;;;5044393;28;20819;-60
2023/07/10 00:13:25;;;;;;;10.43;6.77;;;19.50;67.10;;;;;;5044798;28;20199;-59
2023/07/10 00:15:53;;;;;;;8.83;6.40;;;19.50;67.30;;;;;;5033810;28;20469;-60
2023/07/10 00:18:21;;;;;;;9.23;5.63;;;19.50;67.70;;;;;;5040954;28;20674;-60
2023/07/10 00:20:48;;;;;;;8.30;5.97;;;19.40;67.90;;;;;;5042692;28;20432;-61
2023/07/10 00:23:15;;;;;;;14.50;6.70;;;19.40;69.10;;;;;;5042068;28;20482;-60
2023/07/10 00:25:41;;;;;;;14.33;6.07;;;19.40;68.90;;;;;;5039436;28;20429;-60
2023/07/10 00:28:20;;;;;;;7.60;6.03;;;19.30;68.70;;;;;;5037202;28;20435;-60
2023/07/10 00:30:49;;;;;;;7.23;5.37;;;19.30;68.90;;;;;;5042618;28;20433;-61
2023/07/10 00:33:17;;;;;;;12.23;6.40;;;19.30;69.50;;;;;;5044658;28;20449;-59
2023/07/10 00:35:43;;;;;;;8.60;5.70;;;19.30;69.60;;;;;;5036348;28;20490;-59
2023/07/10 00:38:19;;;;;;;9.23;5.70;;;19.30;69.90;;;;;;5033345;28;20469;-60
2023/07/10 00:40:46;;;;;;;10.70;5.83;;;19.20;69.70;;;;;;5038343;28;20478;-62
2023/07/10 00:43:36;;;;;;;10.57;5.97;;;19.20;69.60;;;;;;5043013;28;20437;-61
2023/07/10 00:46:15;;;;;;;11.60;5.70;;;19.10;69.80;;;;;;5034620;28;20434;-61
2023/07/10 00:48:52;;;;;;;7.57;6.17;;;19.10;69.90;;;;;;5039414;28;20433;-60
2023/07/10 00:51:31;;;;;;;9.83;6.33;;;19.10;70.40;;;;;;5041406;28;20437;-59
2023/07/10 00:53:57;;;;;;;21.07;8.33;;;19.10;70.30;;;;;;5032474;28;20520;-60
2023/07/10 00:56:28;;;;;;;9.60;5.80;;;19.00;70.60;;;;;;5040204;28;20930;-61
2023/07/10 00:58:53;;;;;;;9.63;5.77;;;19.00;71.10;;;;;;5034086;28;21141;-59
2023/07/10 01:01:23;;;;;;;10.00;5.80;;;19.00;71.70;;;;;;5038549;28;20460;-60
2023/07/10 01:03:51;;;;;;;11.33;6.43;;;19.00;71.60;;;;;;5036558;28;20187;-60
2023/07/10 01:06:26;;;;;;;8.07;5.30;;;19.00;71.80;;;;;;5028850;28;20429;-60
2023/07/10 01:09:03;;;;;;;10.10;6.70;;;19.00;72.40;;;;;;5032718;28;20437;-60
2023/07/10 01:11:29;;;;;;;9.57;6.33;;;19.10;72.20;;;;;;5032794;28;20881;-60
2023/07/10 01:13:56;;;;;;;6.83;5.23;;;19.10;72.00;;;;;;5042689;28;20670;-60
2023/07/10 01:16:23;;;;;;;10.03;6.40;;;19.10;71.90;;;;;;5039103;28;20430;-61
2023/07/10 01:18:50;;;;;;;11.10;6.57;;;19.10;72.70;;;;;;5035994;28;20813;-59
2023/07/10 01:21:23;;;;;;;8.60;5.80;;;19.10;72.20;;;;;;5043822;28;20992;-59
2023/07/10 01:23:49;;;;;;;8.00;6.00;;;19.10;72.10;;;;;;5035994;28;20470;-60
2023/07/10 01:26:14;;;;;;;10.07;5.57;;;19.10;72.30;;;;;;5041871;28;20677;-60
2023/07/10 01:28:40;;;;;;;8.30;5.70;;;19.10;72.40;;;;;;5039947;28;20204;-61
2023/07/10 01:31:10;;;;;;;10.13;5.40;;;19.10;72.70;;;;;;5044211;28;20175;-61
2023/07/10 01:33:43;;;;;;;10.53;5.30;;;19.10;72.60;;;;;;5040611;28;20203;-61
2023/07/10 01:36:10;;;;;;;9.77;5.67;;;19.10;72.00;;;;;;5044200;28;20460;-61
2023/07/10 01:38:45;;;;;;;7.03;5.87;;;19.10;71.60;;;;;;5042826;28;20457;-60
2023/07/10 01:41:25;;;;;;;13.40;6.50;;;19.10;71.90;;;;;;5037796;28;20430;-60
2023/07/10 01:43:51;;;;;;;10.83;5.53;;;19.00;71.70;;;;;;5035527;28;20436;-61
2023/07/10 01:46:25;;;;;;;8.20;5.50;;;19.00;72.10;;;;;;5037248;28;20915;-61
2023/07/10 01:48:57;;;;;;;9.03;5.93;;;18.90;72.20;;;;;;5036122;28;20295;-61
2023/07/10 01:51:23;;;;;;;9.57;6.17;;;18.90;72.90;;;;;;5041173;28;20429;-61
2023/07/10 01:53:50;;;;;;;12.17;6.10;;;18.90;73.90;;;;;;5041920;28;20540;-59
2023/07/10 01:56:18;;;;;;;8.10;6.23;;;18.90;74.20;;;;;;5044558;28;20515;-61
2023/07/10 01:58:44;;;;;;;11.10;7.10;;;18.90;74.90;;;;;;5041477;28;20554;-61
2023/07/10 02:01:10;;;;;;;10.03;5.77;;;18.90;74.60;;;;;;5033611;28;20438;-61
2023/07/10 02:03:36;;;;;;;8.87;6.00;;;18.80;74.30;;;;;;5032146;28;20247;-60
2023/07/10 02:06:02;;;;;;;7.10;5.60;;;18.80;74.80;;;;;;5039868;28;20202;-65
2023/07/10 02:08:28;;;;;;;8.37;5.90;;;18.80;75.10;;;;;;5032396;28;20268;-61
2023/07/10 02:10:53;;;;;;;10.90;5.80;;;18.80;75.50;;;;;;5038907;28;20504;-61
2023/07/10 02:13:19;;;;;;;9.63;5.83;;;18.80;76.20;;;;;;5042866;28;20200;-61
2023/07/10 02:15:45;;;;;;;10.13;6.17;;;18.80;75.80;;;;;;5039396;28;20176;-60
2023/07/10 02:18:10;;;;;;;9.73;6.33;;;18.80;75.50;;;;;;5037285;28;20318;-60
2023/07/10 02:20:36;;;;;;;8.70;5.67;;;18.80;75.50;;;;;;5045083;28;20167;-60
2023/07/10 02:23:02;;;;;;;8.63;6.33;;;18.80;75.40;;;;;;5043403;28;20738;-60
2023/07/10 02:25:27;;;;;;;10.00;6.20;;;18.80;75.60;;;;;;5038508;28;20179;-61
2023/07/10 02:27:53;;;;;;;8.70;6.43;;;18.90;75.20;;;;;;5039115;28;20375;-61
2023/07/10 02:30:18;;;;;;;9.33;5.83;;;18.90;73.90;;;;;;5037791;28;20270;-61
2023/07/10 02:32:44;;;;;;;11.70;6.30;;;18.90;73.50;;;;;;5042202;28;20280;-61
2023/07/10 02:35:10;;;;;;;8.40;5.90;;;18.90;73.20;;;;;;5042161;28;20175;-61
2023/07/10 02:37:35;;;;;;;8.80;5.77;;;18.90;73.10;;;;;;5046763;28;20191;-60
2023/07/10 02:40:03;;;;;;;8.27;6.17;;;19.00;73.40;;;;;;5037926;28;20434;-61
2023/07/10 02:42:29;;;;;;;7.20;5.60;;;19.00;74.20;;;;;;5035208;28;20195;-60
2023/07/10 02:44:55;;;;;;;9.33;5.97;;;19.00;74.10;;;;;;5033996;28;20425;-60
2023/07/10 02:47:20;;;;;;;10.17;6.60;;;19.10;74.60;;;;;;5038729;28;20176;-61
2023/07/10 02:49:46;;;;;;;7.90;5.77;;;19.10;75.00;;;;;;5036537;28;20790;-61
2023/07/10 02:52:12;;;;;;;7.53;5.80;;;19.10;75.10;;;;;;5032994;28;20261;-60
2023/07/10 02:54:37;;;;;;;10.50;5.37;;;19.10;75.50;;;;;;5048209;28;20762;-61
2023/07/10 02:57:03;;;;;;;7.50;6.30;;;19.10;75.60;;;;;;5043802;28;20240;-60
2023/07/10 02:59:29;;;;;;;8.97;6.00;;;19.10;76.00;;;;;;5042735;28;20302;-59
2023/07/10 03:01:55;;;;;;;8.17;6.20;;;19.10;75.80;;;;;;5041414;28;20179;-59
2023/07/10 03:04:21;;;;;;;11.47;7.37;;;19.10;74.80;;;;;;5036361;28;20167;-60
2023/07/10 03:06:48;;;;;;;8.17;6.37;;;19.10;74.30;;;;;;5044300;28;20420;-62
2023/07/10 03:09:14;;;;;;;12.27;6.47;;;19.10;74.80;;;;;;5041078;28;20429;-61
2023/07/10 03:11:39;;;;;;;7.63;6.10;;;19.20;75.70;;;;;;5047027;28;20433;-60
2023/07/10 03:14:05;;;;;;;10.80;6.17;;;19.20;74.90;;;;;;5039810;28;20461;-61
2023/07/10 03:16:31;;;;;;;16.43;6.70;;;19.10;75.30;;;;;;5039392;28;20178;-60
2023/07/10 03:18:57;;;;;;;9.17;5.70;;;19.20;75.60;;;;;;5039612;28;22045;-59
2023/07/10 03:21:22;;;;;;;7.70;5.80;;;19.20;75.40;;;;;;5042665;28;20421;-60
2023/07/10 03:23:49;;;;;;;7.93;6.20;;;19.10;74.90;;;;;;5029980;28;20704;-60
2023/07/10 03:26:15;;;;;;;9.43;6.30;;;19.10;74.90;;;;;;5034954;28;20179;-60
2023/07/10 03:28:40;;;;;;;8.57;5.97;;;19.10;75.50;;;;;;5039295;28;20476;-60
2023/07/10 03:31:06;;;;;;;8.00;6.13;;;19.00;77.40;;;;;;5042767;28;20182;-61
2023/07/10 03:33:32;;;;;;;12.50;7.20;;;19.10;77.10;;;;;;5030230;28;20223;-56
2023/07/10 03:36:00;;;;;;;12.00;6.30;;;19.00;76.60;;;;;;5032308;28;20682;-57
2023/07/10 03:38:26;;;;;;;8.90;6.73;;;19.00;76.80;;;;;;5040532;28;20840;-55
2023/07/10 03:40:53;;;;;;;11.23;6.10;;;19.00;77.40;;;;;;5041232;28;20429;-58
2023/07/10 03:43:18;;;;;;;10.17;7.00;;;19.00;77.30;;;;;;5030216;28;20200;-57
2023/07/10 03:45:44;;;;;;;11.23;6.90;;;19.10;77.50;;;;;;5038976;28;20434;-56
2023/07/10 03:48:10;;;;;;;11.87;7.27;;;19.10;77.80;;;;;;5033203;28;20237;-56
2023/07/10 03:50:36;;;;;;;10.07;6.90;;;19.10;78.00;;;;;;5035463;28;20180;-56
2023/07/10 03:53:02;;;;;;;9.60;6.60;;;19.10;77.70;;;;;;5029259;28;20453;-56
2023/07/10 03:55:27;;;;;;;11.17;7.20;;;19.10;78.10;;;;;;5030821;28;20491;-59
2023/07/10 03:57:53;;;;;;;10.73;6.90;;;19.20;77.50;;;;;;5008474;28;20202;-56
2023/07/10 04:00:18;;;;;;;11.80;6.50;;;19.20;77.40;;;;;;5020590;28;20337;-60
2023/07/10 04:02:44;;;;;;;8.97;7.30;;;19.10;78.30;;;;;;5024324;28;20199;-60
2023/07/10 04:05:10;;;;;;;11.60;7.30;;;19.00;79.50;;;;;;5014511;28;20183;-60
2023/07/10 04:07:35;;;;;;;16.57;7.40;;;19.00;80.60;;;;;;5041284;28;20179;-61
2023/07/10 04:10:02;;;;;;;10.00;7.00;;;18.90;81.90;;;;;;5042137;28;20179;-61
2023/07/10 04:12:28;;;;;;;10.70;6.90;;;18.90;81.60;;;;;;5038981;28;20203;-61
2023/07/10 04:14:53;;;;;;;11.73;6.07;;;18.80;82.30;;;;;;5029781;28;20441;-60
2023/07/10 04:17:19;;;;;;;10.83;6.63;;;18.80;83.90;;;;;;5034999;28;20191;-60
2023/07/10 04:19:44;;;;;;;7.93;6.47;;;18.90;84.70;;;;;;5043078;28;20249;-61
2023/07/10 04:22:10;;;;;;;10.50;6.60;;;18.90;84.10;;;;;;5036632;28;22205;-60
2023/07/10 04:24:36;;;;;;;11.27;6.47;;;18.90;84.70;;;;;;5036086;28;20188;-60
2023/07/10 04:27:01;;;;;;;10.30;6.83;;;18.90;86.20;;;;;;5038686;28;20206;-60
2023/07/10 04:29:27;;;;;;;8.80;6.67;;;19.00;85.20;;;;;;5036921;28;20182;-61
2023/07/10 04:31:52;;;;;;;9.57;7.50;;;19.00;85.90;;;;;;5041175;28;20671;-60
2023/07/10 04:34:18;;;;;;;11.80;7.33;;;18.90;85.20;;;;;;5040826;28;20179;-61
2023/07/10 04:36:44;;;;;;;14.00;7.77;;;18.90;84.30;;;;;;5036639;28;20329;-60
2023/07/10 04:39:10;;;;;;;9.20;7.10;;;18.90;85.10;;;;;;5041474;28;20203;-60
2023/07/10 04:41:37;;;;;;;12.50;7.40;;;19.00;85.10;;;;;;5038576;28;20180;-60
2023/07/10 04:44:02;;;;;;;10.33;6.90;;;19.00;82.70;;;;;;5037889;28;20449;-60
2023/07/10 04:46:29;;;;;;;13.10;7.97;;;19.00;83.00;;;;;;5034534;28;20437;-61
2023/07/10 04:48:54;;;;;;;10.23;7.03;;;19.00;82.80;;;;;;5041272;28;20263;-60
2023/07/10 04:51:20;;;;;;;11.37;6.90;;;19.10;83.60;;;;;;5038114;28;21057;-61
2023/07/10 04:53:46;;;;;;;12.03;6.63;;;19.10;84.20;;;;;;5031041;28;20203;-61
2023/07/10 04:56:14;;;;;;;10.00;6.70;;;19.20;83.90;;;;;;5043840;28;20187;-61
2023/07/10 04:58:53;;;;;;;12.03;7.13;;;19.20;83.50;;;;;;5041314;28;20465;-62
2023/07/10 05:01:21;;;;;;;10.10;6.53;;;19.20;83.20;;;;;;5040019;28;20433;-61
2023/07/10 05:03:48;;;;;;;14.10;7.80;;;19.20;83.30;;;;;;5038965;28;20949;-60
2023/07/10 05:06:14;;;;;;;13.70;6.73;;;19.20;83.70;;;;;;5049200;28;20456;-60
2023/07/10 05:08:40;;;;;;;8.90;7.27;;;19.20;84.10;;;;;;5046966;28;20448;-60
2023/07/10 05:11:05;;;;;;;8.50;6.10;;;19.20;83.70;;;;;;5042076;28;20438;-59
2023/07/10 05:13:31;;;;;;;10.13;6.90;;;19.10;84.00;;;;;;5038890;28;20231;-61
2023/07/10 05:15:58;;;;;;;12.47;7.07;;;19.10;84.20;;;;;;5043323;28;20175;-59
2023/07/10 05:18:25;;;;;;;14.73;7.43;;;19.00;84.70;;;;;;5047372;28;20211;-61
2023/07/10 05:20:51;;;;;;;13.73;6.60;;;19.00;86.30;;;;;;5045714;28;20562;-61
2023/07/10 05:23:18;;;;;;;13.13;7.37;;;18.90;86.90;;;;;;5038800;28;20919;-60
2023/07/10 05:25:57;;;;;;;19.50;7.20;;;18.90;86.80;;;;;;5042382;28;20476;-61
2023/07/10 05:28:23;;;;;;;10.20;7.10;;;19.00;87.20;;;;;;5045022;28;20528;-61
2023/07/10 05:30:49;;;;;;;13.20;7.83;;;19.00;86.60;;;;;;5043629;28;20437;-61
2023/07/10 05:33:14;;;;;;;11.03;7.27;;;19.00;86.80;;;;;;5033639;28;21032;-61
2023/07/10 05:35:51;;;;;;;14.70;7.37;;;19.10;86.90;;;;;;5033401;28;20809;-61
2023/07/10 05:38:17;;;;;;;14.10;7.70;;;19.20;87.10;;;;;;5037089;28;20610;-61
2023/07/10 05:40:43;;;;;;;18.80;8.00;;;19.20;89.00;;;;;;5045336;28;20437;-60
2023/07/10 05:43:08;;;;;;;17.90;9.20;;;19.30;91.40;;;;;;5039431;28;20461;-61
2023/07/10 05:45:34;;;;;;;19.53;9.57;;;19.30;93.80;;;;;;5040413;28;20607;-61
2023/07/10 05:47:59;;;;;;;14.20;9.00;;;19.30;99.90;;;;;;5033988;28;20262;-60
2023/07/10 05:50:25;;;;;;;20.97;9.33;;;19.40;99.90;;;;;;5039276;28;20245;-60
2023/07/10 05:52:51;;;;;;;19.20;8.87;;;19.30;99.90;;;;;;5022601;28;20213;-60
2023/07/10 05:55:16;;;;;;;18.47;8.70;;;19.30;99.90;;;;;;5032686;28;20190;-59
2023/07/10 05:57:42;;;;;;;19.03;9.77;;;19.20;99.90;;;;;;5029515;28;20191;-60
2023/07/10 06:00:08;;;;;;;14.57;9.50;;;19.20;99.90;;;;;;5032711;28;20187;-59
2023/07/10 06:02:33;;;;;;;12.50;8.77;;;19.20;99.90;;;;;;5036597;28;20274;-60
2023/07/10 06:04:59;;;;;;;14.27;8.67;;;19.30;99.90;;;;;;5036972;28;21144;-61
2023/07/10 06:07:25;;;;;;;17.20;9.10;;;19.30;99.90;;;;;;5045907;28;20194;-59
2023/07/10 06:09:50;;;;;;;15.27;9.20;;;19.40;99.90;;;;;;5040820;28;20186;-58
2023/07/10 06:12:16;;;;;;;14.40;8.50;;;19.50;99.90;;;;;;5039029;28;20291;-61
2023/07/10 06:14:41;;;;;;;14.30;9.20;;;19.50;99.90;;;;;;5043491;28;20666;-61
2023/07/10 06:17:07;;;;;;;12.07;8.63;;;19.60;99.90;;;;;;5032934;28;20266;-61
2023/07/10 06:19:32;;;;;;;14.50;8.60;;;19.60;99.90;;;;;;5033144;28;20691;-60
2023/07/10 06:22:12;;;;;;;12.10;8.80;;;19.70;99.90;;;;;;5037528;28;20259;-61
2023/07/10 06:24:39;;;;;;;14.30;8.13;;;19.70;99.90;;;;;;5047581;28;20179;-60
2023/07/10 06:27:05;;;;;;;14.20;8.90;;;19.70;99.90;;;;;;5038521;28;20506;-61
2023/07/10 06:29:33;;;;;;;11.23;8.37;;;19.70;99.90;;;;;;5043023;28;20441;-59
2023/07/10 06:31:59;;;;;;;15.97;7.20;;;19.70;99.90;;;;;;5032094;28;20446;-60
2023/07/10 06:34:25;;;;;;;12.73;8.13;;;19.80;99.90;;;;;;5040045;28;20433;-59
2023/07/10 06:36:50;;;;;;;11.37;7.47;;;19.80;99.90;;;;;;5046130;28;20726;-59
2023/07/10 06:39:17;;;;;;;9.87;7.43;;;19.80;99.90;;;;;;5003026;28;1084505;-60
2023/07/10 06:41:42;;;;;;;10.27;7.50;;;19.80;99.90;;;;;;5045003;28;20179;-60
2023/07/10 06:44:08;;;;;;;15.20;8.03;;;19.80;99.90;;;;;;5047558;28;20422;-60
2023/07/10 06:46:33;;;;;;;13.40;7.77;;;19.80;99.90;;;;;;5047586;28;20754;-60
2023/07/10 06:48:59;;;;;;;14.83;8.47;;;19.80;99.90;;;;;;5044753;28;20212;-59
2023/07/10 06:51:25;;;;;;;11.77;7.97;;;19.90;99.90;;;;;;5042757;28;20186;-60
2023/07/10 06:53:50;;;;;;;15.63;8.53;;;19.90;99.90;;;;;;5044349;28;20221;-61
2023/07/10 06:56:16;;;;;;;17.77;8.67;;;19.80;99.90;;;;;;5044968;28;20179;-61
2023/07/10 06:58:41;;;;;;;13.37;8.20;;;19.80;99.90;;;;;;5038997;28;20199;-60
2023/07/10 07:01:07;;;;;;;16.50;8.17;;;19.80;99.90;;;;;;5040922;28;20241;-60
2023/07/10 07:03:32;;;;;;;18.70;8.33;;;19.90;99.90;;;;;;5039435;28;20203;-61
2023/07/10 07:05:58;;;;;;;14.67;8.03;;;20.00;99.90;;;;;;5046284;28;20186;-60
2023/07/10 07:08:25;;;;;;;14.40;8.97;;;20.00;99.90;;;;;;5044949;28;20194;-61
2023/07/10 07:10:52;;;;;;;11.90;7.87;;;20.10;99.90;;;;;;5044311;28;20258;-61
2023/07/10 07:13:19;;;;;;;16.77;9.43;;;20.30;99.90;;;;;;5037930;28;20508;-60
2023/07/10 07:15:51;;;;;;;17.10;9.43;;;20.40;99.90;;;;;;5037374;28;20452;-61
2023/07/10 07:18:17;;;;;;;13.87;9.20;;;20.50;99.90;;;;;;5042131;28;20460;-61
2023/07/10 07:20:42;;;;;;;13.33;8.87;;;20.60;99.90;;;;;;5039692;28;20437;-61
2023/07/10 07:23:08;;;;;;;16.30;9.40;;;20.80;99.90;;;;;;5043024;28;20650;-60
2023/07/10 07:25:34;;;;;;;17.20;9.70;;;21.00;99.90;;;;;;5038474;28;20179;-61
2023/07/10 07:27:59;;;;;;;10.77;8.27;;;21.00;99.90;;;;;;5044080;28;20179;-60
2023/07/10 07:30:29;;;;;;;13.57;7.80;;;21.10;99.90;;;;;;5046175;28;20179;-61
2023/07/10 07:32:54;;;;;;;13.27;8.30;;;21.10;99.90;;;;;;5034858;28;20207;-60
2023/07/10 07:35:20;;;;;;;16.00;7.67;;;21.20;99.90;;;;;;5038352;28;20438;-60
2023/07/10 07:37:45;;;;;;;18.70;7.20;;;21.30;99.90;;;;;;5041847;28;20679;-60
2023/07/10 07:40:12;;;;;;;12.20;6.77;;;21.40;99.90;;;;;;5048779;28;20237;-60
2023/07/10 07:42:38;;;;;;;18.87;8.07;;;21.50;99.90;;;;;;5029866;28;20289;-60
2023/07/10 07:45:04;;;;;;;9.60;6.47;;;21.60;99.90;;;;;;5019296;28;20443;-61
2023/07/10 07:47:30;;;;;;;9.17;6.60;;;21.60;99.90;;;;;;5037065;28;20437;-60
2023/07/10 07:49:56;;;;;;;11.33;7.13;;;21.60;99.90;;;;;;5043520;28;20969;-61
2023/07/10 07:52:21;;;;;;;14.47;7.23;;;21.70;99.90;;;;;;5031423;28;20200;-59
2023/07/10 07:54:48;;;;;;;15.63;7.37;;;21.70;99.90;;;;;;5035151;28;20183;-62
2023/07/10 07:57:14;;;;;;;10.10;6.90;;;21.80;99.90;;;;;;5039284;28;20191;-61
2023/07/10 07:59:39;;;;;;;9.07;7.03;;;21.90;99.90;;;;;;5041444;28;20465;-61
2023/07/10 08:02:06;;;;;;;11.03;7.63;;;22.00;99.90;;;;;;5026640;28;20203;-58
2023/07/10 08:04:31;;;;;;;16.30;6.80;;;22.10;99.90;;;;;;5035755;28;20179;-60
2023/07/10 08:06:57;;;;;;;11.07;7.10;;;22.30;99.90;;;;;;5029275;28;20484;-60
2023/07/10 08:09:22;;;;;;;12.73;6.10;;;22.60;99.90;;;;;;5039526;28;20191;-60
2023/07/10 08:11:48;;;;;;;12.33;7.00;;;22.90;99.90;;;;;;5028061;28;20187;-61
2023/07/10 08:14:14;;;;;;;12.20;6.80;;;23.10;99.90;;;;;;5045919;28;20186;-61
2023/07/10 08:16:40;;;;;;;8.77;5.40;;;23.30;99.90;;;;;;5021522;28;21462;-61
2023/07/10 08:19:05;;;;;;;9.50;5.90;;;23.40;99.90;;;;;;5042167;28;20465;-61
2023/07/10 08:21:31;;;;;;;7.70;5.43;;;23.50;99.20;;;;;;5033641;28;20209;-60
2023/07/10 08:23:56;;;;;;;11.93;6.77;;;23.60;96.80;;;;;;5033033;28;20198;-60
2023/07/10 08:26:22;;;;;;;9.33;6.33;;;23.80;95.50;;;;;;5032369;28;20172;-59
2023/07/10 08:28:48;;;;;;;7.97;6.83;;;23.90;92.50;;;;;;5028388;28;20227;-60
2023/07/10 08:31:14;;;;;;;15.53;9.50;;;24.00;92.60;;;;;;5032837;28;20193;-60
2023/07/10 08:33:40;;;;;;;10.87;6.77;;;24.00;95.50;;;;;;5031712;28;20595;-60
2023/07/10 08:36:06;;;;;;;9.20;6.83;;;24.20;95.50;;;;;;5026473;28;20217;-59
2023/07/10 08:38:34;;;;;;;11.47;6.97;;;24.30;95.40;;;;;;5033733;28;20214;-57
2023/07/10 08:41:17;;;;;;;12.13;7.50;;;24.50;95.40;;;;;;5038856;28;20919;-62
2023/07/10 08:43:43;;;;;;;11.60;6.37;;;24.50;94.60;;;;;;5023095;28;20454;-61
2023/07/10 08:46:22;;;;;;;9.07;6.00;;;24.60;94.80;;;;;;5033324;28;20931;-60
2023/07/10 08:48:54;;;;;;;8.87;6.30;;;24.60;87.70;;;;;;5038406;28;20438;-60
2023/07/10 08:51:19;;;;;;;12.57;6.67;;;24.70;89.50;;;;;;5030116;28;20436;-60
2023/07/10 08:54:00;;;;;;;12.97;6.20;;;24.80;84.90;;;;;;5037565;28;20448;-59
2023/07/10 08:56:33;;;;;;;11.67;5.90;;;24.80;78.60;;;;;;5031375;28;20187;-60
2023/07/10 08:59:14;;;;;;;14.50;6.60;;;24.80;78.50;;;;;;5031398;28;20493;-60
2023/07/10 09:01:46;;;;;;;7.30;6.07;;;24.80;76.70;;;;;;5019621;28;20434;-62
2023/07/10 09:04:15;;;;;;;10.73;6.23;;;24.90;75.00;;;;;;5038936;28;20433;-60
2023/07/10 09:06:48;;;;;;;11.00;6.57;;;24.90;75.70;;;;;;5028779;28;20464;-61
2023/07/10 09:09:41;;;;;;;10.37;6.50;;;25.00;75.20;;;;;;5030892;28;20440;-61
2023/07/10 09:12:25;;;;;;;12.53;6.57;;;25.10;73.40;;;;;;5031901;28;20453;-61
2023/07/10 09:14:58;;;;;;;6.97;6.27;;;25.30;72.90;;;;;;5041819;28;20421;-62
2023/07/10 09:17:35;;;;;;;10.87;6.40;;;25.40;69.90;;;;;;5030166;28;20445;-62
2023/07/10 09:20:04;;;;;;;8.10;5.57;;;25.60;71.80;;;;;;5035054;28;20460;-62
2023/07/10 09:22:33;;;;;;;7.57;5.67;;;25.70;72.30;;;;;;5017782;28;20884;-62
2023/07/10 09:24:59;;;;;;;10.23;5.90;;;25.70;68.60;;;;;;5026868;28;20420;-61
2023/07/10 09:27:25;;;;;;;7.53;6.30;;;25.90;68.60;;;;;;5038971;28;20636;-61
2023/07/10 09:29:52;;;;;;;10.23;6.50;;;26.00;65.80;;;;;;5032197;28;20183;-61
2023/07/10 09:32:20;;;;;;;7.60;5.43;;;26.10;65.40;;;;;;5037126;28;20202;-61
2023/07/10 09:34:58;;;;;;;8.37;5.77;;;26.10;65.80;;;;;;5039631;28;20432;-61
2023/07/10 09:37:30;;;;;;;7.80;5.50;;;26.30;63.60;;;;;;5046381;28;20503;-61
2023/07/10 09:39:55;;;;;;;8.17;6.03;;;26.40;62.50;;;;;;5045693;28;20950;-62
2023/07/10 09:42:31;;;;;;;7.30;5.80;;;26.50;63.00;;;;;;5040130;28;20452;-62
2023/07/10 09:44:59;;;;;;;11.77;5.83;;;26.70;63.40;;;;;;5037998;28;20842;-61
2023/07/10 09:47:44;;;;;;;6.00;5.23;;;26.80;61.40;;;;;;5038063;28;21150;-60
2023/07/10 09:50:15;;;;;;;12.70;6.27;;;26.80;60.60;;;;;;5025909;28;20420;-62
2023/07/10 09:52:42;;;;;;;9.43;6.17;;;26.70;60.00;;;;;;5037775;28;20802;-62
2023/07/10 09:55:08;;;;;;;13.47;6.60;;;26.50;59.40;;;;;;5040044;28;20437;-61
2023/07/10 09:57:47;;;;;;;10.80;6.13;;;26.50;60.00;;;;;;5038239;28;20952;-61
2023/07/10 10:00:16;;;;;;;7.13;4.47;;;26.70;60.60;;;;;;5039523;28;20248;-61
2023/07/10 10:02:46;;;;;;;7.40;5.20;;;27.00;59.50;;;;;;5039255;28;20541;-61
2023/07/10 10:05:12;;;;;;;6.80;5.10;;;27.10;58.70;;;;;;5023675;28;20168;-60
2023/07/10 10:07:41;;;;;;;11.20;5.70;;;27.30;58.80;;;;;;5032481;28;20171;-59
2023/07/10 10:10:27;;;;;;;7.03;5.00;;;27.50;57.30;;;;;;5036228;28;20228;-60
2023/07/10 10:12:53;;;;;;;10.10;4.90;;;27.70;55.80;;;;;;5019950;28;21499;-60
2023/07/10 10:15:43;;;;;;;9.40;4.90;;;27.80;54.70;;;;;;5035793;28;20175;-58
2023/07/10 10:18:32;;;;;;;10.53;4.50;;;27.90;52.60;;;;;;5033827;28;20694;-60
2023/07/10 10:20:58;;;;;;;10.30;4.80;;;28.00;53.70;;;;;;5036997;28;20197;-60
2023/07/10 10:23:36;;;;;;;5.90;4.10;;;28.10;53.10;;;;;;5027803;28;20201;-60
2023/07/10 10:26:44;;;;;;;4.90;4.07;;;28.30;50.30;;;;;;5032661;28;20192;-60
2023/07/10 10:29:21;;;;;;;5.30;4.47;;;28.30;50.40;;;;;;5044641;28;20236;-59
2023/07/10 10:32:13;;;;;;;6.87;4.73;;;28.30;48.70;;;;;;5046488;28;20178;-60
2023/07/10 10:35:09;;;;;;;6.47;4.57;;;28.40;49.60;;;;;;5037449;28;20171;-61
2023/07/10 10:37:57;;;;;;;6.27;4.30;;;28.60;48.30;;;;;;5027988;28;20622;-61
2023/07/10 10:41:05;;;;;;;10.52;5.28;;;28.70;47.40;;;;;;5030870;28;20245;-61
2023/07/10 10:43:34;;;;;;;8.77;5.35;;;28.80;48.90;;;;;;5032937;28;20219;-62
2023/07/10 10:46:34;;;;;;;7.13;4.43;;;29.00;49.00;;;;;;5031437;28;20570;-61
2023/07/10 10:49:36;;;;;;;7.03;4.22;;;29.10;49.60;;;;;;5018317;28;20171;-61
2023/07/10 10:52:28;;;;;;;8.40;4.63;;;29.40;50.60;;;;;;5031455;28;20178;-59
2023/07/10 10:55:17;;;;;;;5.82;4.60;;;29.60;50.70;;;;;;5042456;28;20217;-60
2023/07/10 10:58:14;;;;;;;10.13;4.75;;;29.70;49.80;;;;;;5040794;28;20179;-61
2023/07/10 11:00:49;;;;;;;7.90;4.93;;;29.70;47.40;;;;;;5038088;28;20203;-61
2023/07/10 11:03:42;;;;;;;5.70;4.13;;;29.60;46.90;;;;;;5039335;28;20652;-61
2023/07/10 11:06:47;;;;;;;10.32;4.72;;;29.60;47.50;;;;;;5026473;28;20453;-61
2023/07/10 11:09:26;;;;;;;7.30;4.90;;;29.70;48.80;;;;;;5023559;28;20212;-60
2023/07/10 11:11:53;;;;;;;7.05;4.88;;;29.80;45.80;;;;;;5026650;28;20773;-61
2023/07/10 11:14:20;;;;;;;5.50;4.78;;;29.90;47.20;;;;;;5026279;28;20653;-61
2023/07/10 11:16:45;;;;;;;6.07;4.45;;;30.00;46.70;;;;;;5028867;28;20528;-61
2023/07/10 11:19:18;;;;;;;8.73;4.57;;;30.00;46.10;;;;;;5030216;28;20394;-60
2023/07/10 11:21:44;;;;;;;6.40;4.55;;;30.10;47.30;;;;;;5033487;28;21186;-61
2023/07/10 11:24:25;;;;;;;5.97;4.90;;;30.20;46.20;;;;;;5031629;28;20215;-61
2023/07/10 11:26:52;;;;;;;5.45;4.60;;;30.20;46.20;;;;;;5031368;28;20183;-60
2023/07/10 11:29:27;;;;;;;6.15;4.32;;;30.30;44.80;;;;;;5039527;28;20190;-61
2023/07/10 11:31:55;;;;;;;7.93;4.75;;;30.30;46.10;;;;;;5040750;28;20187;-60
2023/07/10 11:34:30;;;;;;;9.23;4.95;;;30.30;46.00;;;;;;5030143;28;20180;-60
2023/07/10 11:36:57;;;;;;;5.88;4.35;;;30.30;45.00;;;;;;5036978;28;20213;-61
2023/07/10 11:39:40;;;;;;;11.75;5.68;;;30.20;46.40;;;;;;5029226;28;20204;-61
2023/07/10 11:42:15;;;;;;;6.80;5.03;;;30.30;47.70;;;;;;5037950;28;20200;-59
2023/07/10 11:44:43;;;;;;;7.60;5.07;;;30.30;47.50;;;;;;5032001;28;20212;-60
2023/07/10 11:47:41;;;;;;;5.22;4.55;;;30.40;47.70;;;;;;5024253;28;20190;-58
2023/07/10 11:50:15;;;;;;;8.05;4.13;;;30.60;46.10;;;;;;5031447;28;20195;-62
2023/07/10 11:52:41;;;;;;;7.53;4.35;;;30.60;43.30;;;;;;5031521;28;20340;-62
2023/07/10 11:55:11;;;;;;;5.80;4.93;;;30.70;43.40;;;;;;5028850;28;20791;-62
2023/07/10 11:57:38;;;;;;;7.40;5.07;;;30.70;43.80;;;;;;5035574;28;20706;-63
2023/07/10 12:00:13;;;;;;;10.73;5.20;;;30.70;43.10;;;;;;5036133;28;20196;-62
2023/07/10 12:02:43;;;;;;;6.47;4.45;;;30.70;43.70;;;;;;5038950;28;20207;-63
2023/07/10 12:05:09;;;;;;;7.88;4.57;;;30.80;44.00;;;;;;5035713;28;20169;-63
2023/07/10 12:07:34;;;;;;;8.13;4.78;;;30.90;44.00;;;;;;5036159;28;20870;-63
2023/07/10 12:10:00;;;;;;;10.60;4.90;;;30.80;43.90;;;;;;5033632;28;20179;-63
2023/07/10 12:12:33;;;;;;;9.57;4.22;;;30.60;42.30;;;;;;5040460;28;20243;-63
2023/07/10 12:15:03;;;;;;;6.97;4.07;;;30.30;42.40;;;;;;5035873;28;20651;-63
2023/07/10 12:17:31;;;;;;;6.55;4.30;;;30.10;41.20;;;;;;5034824;28;20207;-63
2023/07/10 12:20:00;;;;;;;6.78;4.10;;;30.10;41.60;;;;;;5028977;28;20187;-62
2023/07/10 12:22:34;;;;;;;7.22;4.13;;;30.00;41.10;;;;;;5041192;28;20215;-61
2023/07/10 12:25:00;;;;;;;5.88;3.92;;;30.00;40.30;;;;;;5035854;28;20168;-62
2023/07/10 12:27:32;;;;;;;7.07;4.15;;;30.10;39.40;;;;;;5042078;28;20683;-61
2023/07/10 12:29:58;;;;;;;6.07;3.97;;;30.30;39.10;;;;;;5030967;28;20187;-62
2023/07/10 12:32:25;;;;;;;7.15;4.30;;;30.50;39.40;;;;;;5046308;28;20198;-61
2023/07/10 12:34:54;;;;;;;8.95;4.13;;;30.70;38.20;;;;;;5043514;28;20187;-61
2023/07/10 12:37:19;;;;;;;5.57;4.13;;;30.80;38.00;;;;;;5043581;28;20282;-63
2023/07/10 12:39:49;;;;;;;4.47;4.07;;;30.90;38.00;;;;;;5040890;28;20768;-63
2023/07/10 12:42:33;;;;;;;5.82;3.95;;;31.10;38.40;;;;;;5041004;28;20196;-63
2023/07/10 12:45:08;;;;;;;7.53;4.38;;;31.20;38.10;;;;;;5036144;28;20202;-63
2023/07/10 12:47:34;;;;;;;7.85;3.88;;;31.30;38.60;;;;;;5036200;28;20227;-63
2023/07/10 12:50:00;;;;;;;6.13;3.97;;;31.40;38.90;;;;;;5036095;28;20217;-63
2023/07/10 12:52:34;;;;;;;6.10;4.50;;;31.60;38.00;;;;;;5042371;28;20602;-63